Time;durP1;ratioP1;P1;durP2;ratioP2;P2;SDS_P1;SDS_P2;PMS_P1;PMS_P2;Temp;Humidity;BMP_temperature;BMP_pressure;BME280_temperature;BME280_humidity;BME280_pressure;Samples;Min_cycle;Max_cycle;Signal;HPM_P1;HPM_P2
2023/04/11 00:02:17;;;;;;;6.57;1.48;;;7.60;99.90;;;;;;5050758;28;20367;-86
2023/04/11 00:04:44;;;;;;;7.57;1.70;;;7.50;99.90;;;;;;5033994;28;20049;-85
2023/04/11 00:07:10;;;;;;;6.70;1.50;;;7.50;99.90;;;;;;5033238;28;20516;-85
2023/04/11 00:09:36;;;;;;;5.95;1.40;;;7.50;99.90;;;;;;5050552;28;20136;-85
2023/04/11 00:12:01;;;;;;;6.90;1.60;;;7.40;99.90;;;;;;5017595;28;20085;-85
2023/04/11 00:14:31;;;;;;;7.57;1.42;;;7.40;99.90;;;;;;5033628;28;20092;-86
2023/04/11 00:16:59;;;;;;;6.57;1.58;;;7.30;99.90;;;;;;5033586;28;20095;-86
2023/04/11 00:19:29;;;;;;;5.70;1.42;;;7.20;99.90;;;;;;5033544;28;20099;-87
2023/04/11 00:21:59;;;;;;;6.63;1.65;;;7.30;99.90;;;;;;5016706;28;20057;-87
2023/04/11 00:24:25;;;;;;;7.88;1.70;;;7.30;99.90;;;;;;4985305;28;20095;-87
2023/04/11 00:26:52;;;;;;;6.90;1.50;;;7.30;99.90;;;;;;5000579;28;20135;-88
2023/04/11 00:29:17;;;;;;;5.43;1.60;;;7.30;99.90;;;;;;5000632;28;20041;-87
2023/04/11 00:31:43;;;;;;;7.53;1.40;;;7.20;99.90;;;;;;5033317;28;20045;-87
2023/04/11 00:34:09;;;;;;;5.20;1.58;;;7.10;99.90;;;;;;5017161;28;20107;-86
2023/04/11 00:36:35;;;;;;;5.85;1.60;;;7.00;99.90;;;;;;5033141;28;20052;-88
2023/04/11 00:39:00;;;;;;;7.68;1.50;;;7.00;99.90;;;;;;5016501;28;20481;-88
2023/04/11 00:41:26;;;;;;;7.65;1.67;;;7.10;99.90;;;;;;5000675;28;20041;-88
2023/04/11 00:43:56;;;;;;;6.63;1.65;;;7.00;99.90;;;;;;4985921;28;20137;-88
2023/04/11 00:46:23;;;;;;;5.55;1.52;;;7.00;99.90;;;;;;5017335;28;20056;-87
2023/04/11 00:48:50;;;;;;;5.80;1.50;;;6.90;99.90;;;;;;5017185;28;20072;-88
2023/04/11 00:51:17;;;;;;;6.82;1.85;;;6.90;99.90;;;;;;5000695;28;20057;-87
2023/04/11 00:53:44;;;;;;;5.38;1.42;;;6.80;99.90;;;;;;5033216;28;20049;-88
2023/04/11 00:56:10;;;;;;;7.20;1.60;;;6.80;99.90;;;;;;5033224;28;20045;-87
2023/04/11 00:58:38;;;;;;;7.32;1.55;;;6.80;99.90;;;;;;5032845;28;20045;-87
2023/04/11 01:01:10;;;;;;;7.43;1.92;;;6.80;99.90;;;;;;5016830;28;20072;-87
2023/04/11 01:03:38;;;;;;;5.68;1.48;;;6.70;99.90;;;;;;5016676;28;20485;-88
2023/04/11 01:06:10;;;;;;;8.18;1.65;;;6.70;99.90;;;;;;5015919;28;20631;-87
2023/04/11 01:08:37;;;;;;;6.38;1.67;;;6.70;99.90;;;;;;5016505;28;20128;-89
2023/04/11 01:11:03;;;;;;;6.88;1.77;;;6.70;99.90;;;;;;5016368;28;20045;-87
2023/04/11 01:13:33;;;;;;;6.78;1.60;;;6.70;99.90;;;;;;5032672;28;20119;-87
2023/04/11 01:15:59;;;;;;;7.82;1.90;;;6.70;99.90;;;;;;5015434;28;20053;-87
2023/04/11 01:18:26;;;;;;;4.78;1.67;;;6.70;99.90;;;;;;5032316;28;20050;-86
2023/04/11 01:20:52;;;;;;;8.57;2.13;;;6.70;99.90;;;;;;5016310;28;20088;-87
2023/04/11 01:23:23;;;;;;;8.23;2.17;;;6.70;99.90;;;;;;5016163;28;20059;-87
2023/04/11 01:25:50;;;;;;;8.87;2.50;;;6.70;99.90;;;;;;4999905;28;20080;-87
2023/04/11 01:28:17;;;;;;;8.65;2.65;;;6.60;99.90;;;;;;5016035;28;20375;-87
2023/04/11 01:30:43;;;;;;;9.02;2.80;;;6.60;99.90;;;;;;5015813;28;20088;-86
2023/04/11 01:33:11;;;;;;;8.05;2.85;;;6.70;99.90;;;;;;5049223;28;20473;-87
2023/04/11 01:35:38;;;;;;;9.45;2.88;;;6.60;99.90;;;;;;5015720;28;20405;-86
2023/04/11 01:38:05;;;;;;;10.63;3.20;;;6.60;99.90;;;;;;4999787;28;20053;-86
2023/04/11 01:40:32;;;;;;;8.32;3.00;;;6.60;99.90;;;;;;5016364;28;20049;-86
2023/04/11 01:42:58;;;;;;;8.98;2.72;;;6.60;99.90;;;;;;5016426;28;20134;-86
2023/04/11 01:45:28;;;;;;;8.65;3.00;;;6.60;99.90;;;;;;5015805;28;20120;-87
2023/04/11 01:47:54;;;;;;;10.27;3.03;;;6.60;99.90;;;;;;4999948;28;20046;-87
2023/04/11 01:50:20;;;;;;;10.70;3.03;;;6.60;99.90;;;;;;5032150;28;20075;-87
2023/04/11 01:52:47;;;;;;;7.18;2.90;;;6.60;99.90;;;;;;5032292;28;20191;-87
2023/04/11 01:55:13;;;;;;;9.65;2.95;;;6.60;99.90;;;;;;4999971;28;20057;-87
2023/04/11 01:57:51;;;;;;;8.98;3.00;;;6.70;99.90;;;;;;5003411;28;20041;-87
2023/04/11 02:00:18;;;;;;;10.98;3.20;;;6.70;99.90;;;;;;5036297;28;20053;-86
2023/04/11 02:02:44;;;;;;;11.98;3.45;;;6.70;99.90;;;;;;5036094;28;20405;-86
2023/04/11 02:05:10;;;;;;;12.63;3.78;;;6.80;99.90;;;;;;5019737;28;20057;-88
2023/04/11 02:07:36;;;;;;;12.88;3.67;;;6.80;99.90;;;;;;5019803;28;20072;-87
2023/04/11 02:10:02;;;;;;;11.63;3.55;;;6.80;99.90;;;;;;5036356;28;20080;-88
2023/04/11 02:12:28;;;;;;;11.32;3.47;;;6.80;99.90;;;;;;5036168;28;20051;-88
2023/04/11 02:14:54;;;;;;;10.45;3.50;;;6.80;99.90;;;;;;5036089;28;20132;-87
2023/04/11 02:17:21;;;;;;;11.82;3.45;;;6.80;99.90;;;;;;5035969;28;20082;-88
2023/04/11 02:19:46;;;;;;;13.20;3.35;;;6.70;99.90;;;;;;5019246;28;20068;-88
2023/04/11 02:22:13;;;;;;;12.70;3.22;;;6.80;99.90;;;;;;4983533;28;20045;-86
2023/04/11 02:24:39;;;;;;;11.55;3.35;;;6.80;99.90;;;;;;4999777;28;20049;-87
2023/04/11 02:27:06;;;;;;;14.30;3.90;;;6.70;99.90;;;;;;4999726;28;20129;-86
2023/04/11 02:29:32;;;;;;;13.55;3.67;;;6.70;99.90;;;;;;5015718;28;20065;-86
2023/04/11 02:31:58;;;;;;;14.05;3.97;;;6.70;99.90;;;;;;5015949;28;20410;-87
2023/04/11 02:34:24;;;;;;;14.88;4.53;;;6.70;99.90;;;;;;4999670;28;20054;-87
2023/04/11 02:36:50;;;;;;;17.10;4.30;;;6.70;99.90;;;;;;5015730;28;20089;-88
2023/04/11 02:39:17;;;;;;;15.02;4.40;;;6.70;99.90;;;;;;4999203;28;20042;-86
2023/04/11 02:41:43;;;;;;;15.95;4.65;;;6.80;99.90;;;;;;5015820;28;20050;-86
2023/04/11 02:44:10;;;;;;;16.25;4.85;;;6.80;99.90;;;;;;4998809;28;20052;-87
2023/04/11 02:46:36;;;;;;;17.83;4.88;;;6.80;99.90;;;;;;4999377;28;20049;-88
2023/04/11 02:49:03;;;;;;;17.23;4.88;;;6.80;99.90;;;;;;4998882;28;20053;-87
2023/04/11 02:51:30;;;;;;;16.15;4.75;;;6.80;99.90;;;;;;5018344;28;20422;-87
2023/04/11 02:53:55;;;;;;;13.65;4.22;;;6.80;99.90;;;;;;5018885;28;20060;-88
2023/04/11 02:56:21;;;;;;;16.17;4.72;;;6.80;99.90;;;;;;5035325;28;20045;-87
2023/04/11 02:58:48;;;;;;;15.43;4.43;;;6.90;99.90;;;;;;4986066;28;20131;-85
2023/04/11 03:01:17;;;;;;;14.68;4.95;;;6.90;99.90;;;;;;5035236;28;20095;-87
2023/04/11 03:03:43;;;;;;;18.60;4.65;;;7.00;99.90;;;;;;5034879;28;20049;-87
2023/04/11 03:06:09;;;;;;;14.32;4.57;;;7.00;99.90;;;;;;5033577;28;20057;-85
2023/04/11 03:08:36;;;;;;;11.93;3.60;;;7.00;99.90;;;;;;5000963;28;20049;-85
2023/04/11 03:11:05;;;;;;;15.02;4.03;;;7.00;99.90;;;;;;5017631;28;20049;-87
2023/04/11 03:13:31;;;;;;;12.10;3.72;;;7.00;99.90;;;;;;5017496;28;20085;-86
2023/04/11 03:15:57;;;;;;;12.45;3.67;;;7.00;99.90;;;;;;5032712;28;20054;-88
2023/04/11 03:18:23;;;;;;;12.95;3.90;;;7.00;99.90;;;;;;5017313;28;20128;-86
2023/04/11 03:20:50;;;;;;;15.30;4.28;;;7.00;99.90;;;;;;5017472;28;20056;-88
2023/04/11 03:23:16;;;;;;;11.55;3.78;;;7.00;99.90;;;;;;4997892;28;20053;-86
2023/04/11 03:25:43;;;;;;;14.35;4.07;;;7.00;99.90;;;;;;5013893;28;20552;-87
2023/04/11 03:28:09;;;;;;;15.30;4.25;;;7.00;99.90;;;;;;5013762;28;20060;-87
2023/04/11 03:30:39;;;;;;;20.00;4.47;;;7.00;99.90;;;;;;4997539;28;20077;-86
2023/04/11 03:33:06;;;;;;;18.77;4.30;;;7.00;99.90;;;;;;5013608;28;20046;-87
2023/04/11 03:35:32;;;;;;;15.60;3.97;;;7.10;99.90;;;;;;5013800;28;20058;-87
2023/04/11 03:37:58;;;;;;;15.40;4.00;;;7.10;99.90;;;;;;5013760;28;20112;-86
2023/04/11 03:40:24;;;;;;;17.20;3.83;;;7.10;99.90;;;;;;5013570;28;20054;-87
2023/04/11 03:42:50;;;;;;;18.45;4.53;;;7.10;99.90;;;;;;4997536;28;20057;-86
2023/04/11 03:45:16;;;;;;;17.00;4.22;;;7.20;99.90;;;;;;4997332;28;20050;-87
2023/04/11 03:47:43;;;;;;;18.55;4.28;;;7.20;99.90;;;;;;4997228;28;20410;-87
2023/04/11 03:50:09;;;;;;;14.07;4.15;;;7.20;99.90;;;;;;4997392;28;20111;-87
2023/04/11 03:52:35;;;;;;;20.27;4.70;;;7.20;99.90;;;;;;5013740;28;20482;-87
2023/04/11 03:55:02;;;;;;;22.70;4.22;;;7.20;99.90;;;;;;5013563;28;20132;-86
2023/04/11 03:57:28;;;;;;;13.68;3.63;;;7.30;99.90;;;;;;5013252;28;20474;-86
2023/04/11 03:59:54;;;;;;;19.02;4.30;;;7.30;99.90;;;;;;4997096;28;20180;-85
2023/04/11 04:02:20;;;;;;;14.77;3.83;;;7.40;99.90;;;;;;5013090;28;20118;-86
2023/04/11 04:04:53;;;;;;;16.95;3.92;;;7.40;99.90;;;;;;5013333;28;20167;-84
2023/04/11 04:07:25;;;;;;;17.20;4.10;;;7.40;99.90;;;;;;4972946;28;1177745;-85
2023/04/11 04:09:51;;;;;;;16.92;3.92;;;7.50;99.90;;;;;;5014199;28;20061;-85
2023/04/11 04:12:18;;;;;;;19.83;4.25;;;7.50;99.90;;;;;;5014086;28;20088;-85
2023/04/11 04:14:44;;;;;;;15.38;3.90;;;7.50;99.90;;;;;;5014064;28;20049;-84
2023/04/11 04:17:12;;;;;;;16.77;3.80;;;7.50;99.90;;;;;;5013914;28;20050;-84
2023/04/11 04:19:38;;;;;;;15.65;3.63;;;7.60;99.90;;;;;;5012898;28;20042;-85
2023/04/11 04:22:04;;;;;;;16.38;3.70;;;7.60;99.90;;;;;;5013710;28;20112;-85
2023/04/11 04:24:36;;;;;;;16.15;3.38;;;7.70;99.90;;;;;;5013345;28;20139;-86
2023/04/11 04:27:02;;;;;;;17.67;3.40;;;7.70;99.90;;;;;;4997712;28;20046;-87
2023/04/11 04:29:32;;;;;;;17.05;3.22;;;7.70;99.90;;;;;;5013861;28;20068;-85
2023/04/11 04:32:00;;;;;;;12.52;3.22;;;7.70;99.90;;;;;;5013763;28;20050;-87
2023/04/11 04:34:27;;;;;;;13.63;2.85;;;7.80;99.90;;;;;;5013790;28;20498;-86
2023/04/11 04:36:58;;;;;;;16.30;3.28;;;7.80;99.90;;;;;;5013647;28;20449;-86
2023/04/11 04:39:24;;;;;;;10.98;2.88;;;7.80;99.90;;;;;;5013445;28;20555;-85
2023/04/11 04:42:00;;;;;;;13.85;3.22;;;7.80;99.90;;;;;;5013523;28;20058;-85
2023/04/11 04:44:26;;;;;;;11.07;3.00;;;7.80;99.90;;;;;;5013671;28;20046;-87
2023/04/11 04:46:56;;;;;;;12.52;3.03;;;7.80;99.90;;;;;;4997122;28;20053;-85
2023/04/11 04:49:22;;;;;;;13.48;3.05;;;7.80;99.90;;;;;;4997180;28;20478;-85
2023/04/11 04:51:48;;;;;;;11.95;2.90;;;7.80;99.90;;;;;;5013399;28;20048;-86
2023/04/11 04:54:18;;;;;;;15.32;3.08;;;7.80;99.90;;;;;;5013508;28;20128;-85
2023/04/11 04:56:44;;;;;;;13.60;2.72;;;7.80;99.90;;;;;;4997112;28;20540;-87
2023/04/11 04:59:15;;;;;;;13.73;2.80;;;7.90;99.90;;;;;;4996697;28;20504;-86
2023/04/11 05:01:41;;;;;;;14.32;2.75;;;7.90;99.90;;;;;;4997060;28;20060;-86
2023/04/11 05:04:07;;;;;;;9.25;2.45;;;7.80;99.90;;;;;;4997679;28;20085;-85
2023/04/11 05:06:32;;;;;;;14.15;3.33;;;7.90;99.90;;;;;;5012618;28;20097;-85
2023/04/11 05:09:00;;;;;;;12.57;3.13;;;7.10;99.90;;;;;;5013699;28;20057;-85
2023/04/11 05:11:27;;;;;;;14.35;3.10;;;7.90;99.90;;;;;;5013263;28;20121;-85
2023/04/11 05:13:53;;;;;;;12.27;3.45;;;8.00;99.90;;;;;;5013628;28;20557;-85
2023/04/11 05:16:19;;;;;;;12.30;3.00;;;7.90;99.90;;;;;;5013024;28;20136;-86
2023/04/11 05:18:45;;;;;;;10.82;3.10;;;8.00;99.90;;;;;;5012844;28;20128;-85
2023/04/11 05:21:13;;;;;;;13.00;3.08;;;8.00;99.90;;;;;;4963902;28;20207;-85
2023/04/11 05:23:40;;;;;;;10.40;2.92;;;8.00;99.90;;;;;;5016101;28;20061;-85
2023/04/11 05:26:07;;;;;;;11.35;2.95;;;8.00;99.90;;;;;;5016336;28;20052;-85
2023/04/11 05:28:34;;;;;;;11.85;2.70;;;8.10;99.90;;;;;;5032787;28;20057;-85
2023/04/11 05:31:00;;;;;;;9.68;2.97;;;8.10;99.90;;;;;;5016224;28;20053;-85
2023/04/11 05:33:27;;;;;;;11.65;3.05;;;8.00;99.90;;;;;;5033036;28;20049;-87
2023/04/11 05:35:53;;;;;;;10.63;2.63;;;8.10;99.90;;;;;;5016420;28;20053;-86
2023/04/11 05:38:19;;;;;;;13.75;3.05;;;8.10;99.90;;;;;;5032570;28;20041;-87
2023/04/11 05:40:45;;;;;;;13.45;3.00;;;8.10;99.90;;;;;;5016130;28;20107;-86
2023/04/11 05:43:14;;;;;;;15.23;3.05;;;8.10;99.90;;;;;;4999786;28;20069;-85
2023/04/11 05:45:41;;;;;;;12.30;3.05;;;8.10;99.90;;;;;;5015931;28;20057;-85
2023/04/11 05:48:07;;;;;;;10.38;2.70;;;8.20;99.90;;;;;;5015748;28;20088;-86
2023/04/11 05:50:34;;;;;;;10.98;2.80;;;8.10;99.90;;;;;;5016127;28;20103;-86
2023/04/11 05:53:00;;;;;;;12.50;3.05;;;8.10;99.90;;;;;;5031780;28;20050;-86
2023/04/11 05:55:26;;;;;;;11.35;2.53;;;8.10;99.90;;;;;;4999714;28;20078;-86
2023/04/11 05:57:51;;;;;;;13.15;2.88;;;8.10;99.90;;;;;;5015754;28;20373;-86
2023/04/11 06:00:18;;;;;;;9.75;2.35;;;8.10;99.90;;;;;;5032878;28;20041;-86
2023/04/11 06:02:43;;;;;;;9.48;2.42;;;8.20;99.90;;;;;;5032509;28;20393;-85
2023/04/11 06:05:10;;;;;;;11.90;2.70;;;8.20;99.90;;;;;;5032446;28;20053;-86
2023/04/11 06:07:38;;;;;;;10.45;2.40;;;8.30;99.90;;;;;;4999582;28;20057;-85
2023/04/11 06:10:05;;;;;;;10.70;2.22;;;8.30;99.90;;;;;;5016130;28;20052;-86
2023/04/11 06:12:31;;;;;;;11.80;2.35;;;8.30;99.90;;;;;;4999673;28;20095;-87
2023/04/11 06:14:58;;;;;;;9.13;2.35;;;8.30;99.90;;;;;;5032253;28;20129;-87
2023/04/11 06:17:24;;;;;;;10.73;2.25;;;8.20;99.90;;;;;;5032488;28;20057;-88
2023/04/11 06:19:49;;;;;;;12.68;2.50;;;8.30;99.90;;;;;;5015876;28;20056;-86
2023/04/11 06:22:15;;;;;;;11.45;2.40;;;8.20;99.90;;;;;;5015745;28;20068;-86
2023/04/11 06:24:41;;;;;;;12.25;2.38;;;8.30;99.90;;;;;;5032246;28;20107;-86
2023/04/11 06:27:10;;;;;;;9.23;2.20;;;8.30;99.90;;;;;;5032526;28;20128;-86
2023/04/11 06:29:37;;;;;;;12.20;2.50;;;8.30;99.90;;;;;;5048963;28;20056;-86
2023/04/11 06:32:03;;;;;;;10.63;2.47;;;8.30;99.90;;;;;;5015908;28;20383;-86
2023/04/11 06:34:31;;;;;;;11.45;2.53;;;8.30;99.90;;;;;;4998920;28;20049;-87
2023/04/11 06:36:57;;;;;;;9.95;2.20;;;8.30;99.90;;;;;;5015752;28;20049;-87
2023/04/11 06:39:23;;;;;;;10.43;2.22;;;8.30;99.90;;;;;;5031697;28;20045;-84
2023/04/11 06:41:50;;;;;;;10.82;2.67;;;8.40;99.90;;;;;;5049724;28;20080;-85
2023/04/11 06:44:16;;;;;;;12.27;2.78;;;8.40;99.90;;;;;;5052597;28;20132;-87
2023/04/11 06:46:42;;;;;;;10.48;2.63;;;8.40;99.90;;;;;;5035340;28;20153;-86
2023/04/11 06:49:09;;;;;;;8.45;2.22;;;8.40;99.90;;;;;;5037947;28;20103;-86
2023/04/11 06:51:37;;;;;;;12.23;2.60;;;8.40;99.90;;;;;;5035618;28;20046;-86
2023/04/11 06:54:05;;;;;;;8.70;2.35;;;8.50;99.90;;;;;;5036395;28;20053;-85
2023/04/11 06:56:31;;;;;;;12.35;2.30;;;8.50;99.90;;;;;;5021517;28;20049;-87
2023/04/11 06:58:57;;;;;;;9.95;2.40;;;8.50;99.90;;;;;;5036306;28;20041;-86
2023/04/11 07:01:29;;;;;;;10.60;2.42;;;8.50;99.90;;;;;;5036229;28;20037;-88
2023/04/11 07:03:55;;;;;;;8.88;2.30;;;8.50;99.90;;;;;;5035752;28;20045;-87
2023/04/11 07:06:21;;;;;;;12.05;2.70;;;8.50;99.90;;;;;;5035261;28;20103;-86
2023/04/11 07:08:47;;;;;;;7.97;2.08;;;8.50;99.90;;;;;;5019287;28;20436;-86
2023/04/11 07:11:13;;;;;;;9.40;2.13;;;8.50;99.90;;;;;;5019810;28;20041;-87
2023/04/11 07:13:39;;;;;;;10.82;3.10;;;8.50;99.90;;;;;;5035921;28;20362;-88
2023/04/11 07:16:05;;;;;;;12.93;3.10;;;8.50;99.90;;;;;;5035841;28;20045;-87
2023/04/11 07:18:31;;;;;;;11.38;2.70;;;8.50;99.90;;;;;;5019965;28;20503;-87
2023/04/11 07:20:57;;;;;;;8.50;2.55;;;8.50;99.90;;;;;;5037741;28;20041;-87
2023/04/11 07:23:26;;;;;;;15.00;2.70;;;8.50;99.90;;;;;;5037939;28;20049;-87
2023/04/11 07:25:53;;;;;;;11.57;2.65;;;8.50;99.90;;;;;;5036711;28;20107;-85
2023/04/11 07:28:20;;;;;;;11.05;2.67;;;8.60;99.90;;;;;;5004872;28;20053;-86
2023/04/11 07:30:46;;;;;;;11.43;2.35;;;8.60;99.90;;;;;;5035791;28;20049;-88
2023/04/11 07:33:12;;;;;;;12.95;2.60;;;8.70;99.90;;;;;;5002310;28;20375;-85
2023/04/11 07:35:38;;;;;;;9.35;2.15;;;8.90;99.90;;;;;;5035941;28;20041;-86
2023/04/11 07:38:03;;;;;;;14.20;3.08;;;9.00;99.90;;;;;;5034697;28;20042;-85
2023/04/11 07:40:30;;;;;;;12.57;2.53;;;9.10;99.90;;;;;;5001985;28;20056;-88
2023/04/11 07:42:56;;;;;;;14.55;2.50;;;9.10;99.90;;;;;;5034586;28;20045;-85
2023/04/11 07:45:22;;;;;;;13.25;3.80;;;9.10;99.90;;;;;;5034642;28;20050;-85
2023/04/11 07:47:47;;;;;;;13.43;2.90;;;9.10;99.90;;;;;;5019180;28;20045;-87
2023/04/11 07:50:13;;;;;;;14.23;2.53;;;9.10;99.90;;;;;;5038724;28;20061;-88
2023/04/11 07:52:42;;;;;;;12.45;2.55;;;9.20;99.90;;;;;;5037572;28;20072;-86
2023/04/11 07:55:08;;;;;;;12.52;2.58;;;8.90;99.90;;;;;;5033995;28;20046;-86
2023/04/11 07:57:37;;;;;;;15.35;2.78;;;9.20;99.90;;;;;;5018086;28;20401;-85
2023/04/11 08:00:03;;;;;;;14.13;2.70;;;9.20;99.90;;;;;;5018345;28;20441;-85
2023/04/11 08:02:29;;;;;;;12.63;2.38;;;9.20;99.90;;;;;;5017625;28;20053;-85
2023/04/11 08:04:55;;;;;;;12.38;2.30;;;9.20;99.90;;;;;;5034221;28;20045;-85
2023/04/11 08:07:21;;;;;;;10.60;2.20;;;9.20;99.90;;;;;;5034415;28;20569;-84
2023/04/11 08:09:47;;;;;;;9.73;1.98;;;9.10;99.90;;;;;;5017278;28;20091;-85
2023/04/11 08:12:13;;;;;;;11.45;2.10;;;9.20;99.90;;;;;;5017526;28;20490;-87
2023/04/11 08:14:38;;;;;;;9.88;2.10;;;9.20;99.90;;;;;;5033896;28;20067;-84
2023/04/11 08:17:04;;;;;;;11.32;1.98;;;9.20;99.90;;;;;;5033552;28;20057;-83
2023/04/11 08:19:33;;;;;;;10.13;2.30;;;9.30;99.90;;;;;;5033529;28;20452;-83
2023/04/11 08:21:58;;;;;;;10.95;2.13;;;9.40;99.90;;;;;;5033662;28;20048;-84
2023/04/11 08:24:24;;;;;;;12.93;2.35;;;9.50;99.90;;;;;;5000970;28;20053;-83
2023/04/11 08:26:50;;;;;;;9.90;2.13;;;9.50;99.90;;;;;;5000664;28;20084;-83
2023/04/11 08:29:16;;;;;;;9.82;2.10;;;9.40;99.90;;;;;;5033337;28;20049;-83
2023/04/11 08:31:45;;;;;;;10.40;2.15;;;9.30;99.90;;;;;;5033589;28;20107;-84
2023/04/11 08:34:12;;;;;;;10.75;2.17;;;9.30;99.90;;;;;;5033364;28;20104;-84
2023/04/11 08:36:37;;;;;;;11.45;2.40;;;9.40;99.90;;;;;;5033493;28;20045;-84
2023/04/11 08:39:03;;;;;;;10.52;2.42;;;9.70;99.90;;;;;;5033000;28;20048;-84
2023/04/11 08:41:29;;;;;;;11.02;2.20;;;10.10;99.90;;;;;;5033341;28;20508;-84
2023/04/11 08:43:56;;;;;;;10.60;2.10;;;10.20;99.90;;;;;;5033522;28;20056;-84
2023/04/11 08:46:22;;;;;;;9.77;2.20;;;10.20;99.90;;;;;;5017042;28;20053;-84
2023/04/11 08:48:49;;;;;;;12.38;2.40;;;10.10;99.90;;;;;;5000370;28;20508;-84
2023/04/11 08:51:32;;;;;;;10.70;2.00;;;10.00;99.90;;;;;;5016520;28;20400;-83
2023/04/11 08:54:04;;;;;;;13.18;2.58;;;9.90;99.90;;;;;;5016679;28;20045;-86
2023/04/11 08:56:31;;;;;;;10.35;2.20;;;9.70;99.90;;;;;;5032567;28;20053;-84
2023/04/11 08:58:59;;;;;;;11.20;2.13;;;10.00;99.90;;;;;;5016644;28;20076;-85
2023/04/11 09:01:33;;;;;;;10.98;2.05;;;10.20;99.90;;;;;;5033116;28;20091;-84
2023/04/11 09:04:00;;;;;;;7.35;1.70;;;10.60;99.90;;;;;;5032540;28;20481;-84
2023/04/11 09:06:31;;;;;;;10.38;2.10;;;10.80;99.90;;;;;;5032768;28;20080;-83
2023/04/11 09:09:07;;;;;;;8.75;1.70;;;10.80;99.90;;;;;;5032680;28;20053;-84
2023/04/11 09:11:51;;;;;;;8.00;1.63;;;10.70;99.90;;;;;;5033104;28;20464;-83
2023/04/11 09:14:17;;;;;;;6.90;1.50;;;10.60;99.90;;;;;;5032933;28;20076;-84
2023/04/11 09:17:00;;;;;;;7.65;1.50;;;10.50;99.90;;;;;;5032238;28;20505;-83
2023/04/11 09:19:29;;;;;;;8.80;1.90;;;10.40;99.90;;;;;;5032657;28;20076;-84
2023/04/11 09:22:00;;;;;;;9.48;2.03;;;10.40;99.90;;;;;;5016337;28;20049;-83
2023/04/11 09:24:27;;;;;;;9.23;1.95;;;10.70;99.90;;;;;;5032932;28;20053;-83
2023/04/11 09:27:13;;;;;;;7.75;1.80;;;11.10;99.90;;;;;;5016139;28;20132;-83
2023/04/11 09:29:41;;;;;;;9.35;1.92;;;11.40;99.90;;;;;;5049307;28;20056;-82
2023/04/11 09:32:26;;;;;;;8.80;1.73;;;11.70;99.90;;;;;;5032759;28;20103;-83
2023/04/11 09:35:09;;;;;;;9.20;2.00;;;11.70;99.90;;;;;;5049287;28;20409;-83
2023/04/11 09:37:57;;;;;;;8.00;1.90;;;11.40;99.90;;;;;;5048974;28;20136;-82
2023/04/11 09:40:25;;;;;;;11.40;2.17;;;11.30;99.90;;;;;;5032499;28;20049;-83
2023/04/11 09:42:59;;;;;;;8.35;1.77;;;11.20;99.90;;;;;;5049145;28;20041;-82
2023/04/11 09:45:27;;;;;;;9.15;2.08;;;11.20;99.90;;;;;;5016087;28;20409;-83
2023/04/11 09:47:58;;;;;;;11.38;2.20;;;11.00;99.90;;;;;;5049638;28;20084;-83
2023/04/11 09:50:25;;;;;;;9.40;1.80;;;10.90;99.90;;;;;;5033643;28;20057;-83
2023/04/11 09:52:52;;;;;;;8.85;2.00;;;10.70;99.90;;;;;;5017288;28;20461;-83
2023/04/11 09:55:20;;;;;;;7.45;2.08;;;10.60;99.90;;;;;;5016037;28;20042;-83
2023/04/11 09:57:47;;;;;;;8.88;2.10;;;10.70;99.90;;;;;;5032453;28;20107;-83
2023/04/11 10:00:18;;;;;;;11.20;2.42;;;11.10;99.90;;;;;;5032830;28;20049;-83
2023/04/11 10:02:49;;;;;;;10.65;2.28;;;11.30;99.90;;;;;;5032561;28;20477;-82
2023/04/11 10:05:17;;;;;;;10.20;2.00;;;11.40;99.90;;;;;;5032393;28;20108;-83
2023/04/11 10:07:51;;;;;;;8.43;1.88;;;11.30;99.90;;;;;;5031504;28;20053;-82
2023/04/11 10:10:19;;;;;;;7.88;1.70;;;11.20;99.90;;;;;;5031813;28;20045;-83
2023/04/11 10:12:45;;;;;;;8.13;1.80;;;11.20;99.90;;;;;;5032063;28;20049;-82
2023/04/11 10:15:18;;;;;;;8.13;1.70;;;11.40;99.90;;;;;;5015498;28;20053;-85
2023/04/11 10:18:09;;;;;;;9.25;1.85;;;11.40;99.90;;;;;;5018229;28;20133;-82
2023/04/11 10:20:48;;;;;;;9.87;1.90;;;11.30;99.90;;;;;;5036180;28;20100;-82
2023/04/11 10:23:15;;;;;;;8.32;1.90;;;11.30;99.90;;;;;;5036941;28;20641;-82
2023/04/11 10:26:00;;;;;;;8.57;1.77;;;11.20;99.90;;;;;;5036132;28;20515;-82
2023/04/11 10:28:43;;;;;;;8.40;1.80;;;10.80;99.90;;;;;;5019400;28;20053;-82
2023/04/11 10:31:16;;;;;;;8.13;1.33;;;10.50;99.90;;;;;;5035829;28;20512;-81
2023/04/11 10:34:14;;;;;;;7.93;1.63;;;10.20;99.90;;;;;;5035841;28;20057;-82
2023/04/11 10:37:12;;;;;;;8.10;1.83;;;10.10;99.90;;;;;;5027220;28;20053;-82
2023/04/11 10:40:11;;;;;;;8.98;1.65;;;10.20;99.90;;;;;;4981884;28;20412;-81
2023/04/11 10:42:41;;;;;;;8.75;1.80;;;10.50;99.90;;;;;;5028341;28;20497;-82
2023/04/11 10:45:21;;;;;;;9.45;2.10;;;10.60;99.90;;;;;;5035775;28;20053;-82
2023/04/11 10:47:55;;;;;;;10.68;2.03;;;10.60;99.90;;;;;;5035495;28;20061;-81
2023/04/11 10:50:30;;;;;;;9.35;1.90;;;10.60;99.90;;;;;;5036979;28;20147;-83
2023/04/11 10:53:02;;;;;;;8.48;1.80;;;10.60;99.90;;;;;;5036122;28;20045;-83
2023/04/11 10:55:42;;;;;;;9.35;1.83;;;10.70;99.90;;;;;;5037453;28;20049;-83
2023/04/11 10:58:09;;;;;;;10.00;1.80;;;10.80;99.90;;;;;;5036867;28;20053;-83
2023/04/11 11:01:14;;;;;;;10.93;2.00;;;10.90;99.90;;;;;;5019655;28;20087;-82
2023/04/11 11:03:49;;;;;;;10.20;2.15;;;10.80;99.90;;;;;;5004795;28;20486;-82
2023/04/11 11:06:16;;;;;;;10.10;2.20;;;10.50;99.90;;;;;;5034986;28;20085;-82
2023/04/11 11:08:41;;;;;;;11.15;2.20;;;10.10;99.90;;;;;;5018306;28;20140;-82
2023/04/11 11:11:09;;;;;;;13.43;2.50;;;9.80;99.90;;;;;;5034677;28;20136;-83
2023/04/11 11:13:49;;;;;;;13.50;2.50;;;9.60;99.90;;;;;;5035130;28;20049;-82
2023/04/11 11:16:20;;;;;;;9.88;2.33;;;9.30;99.90;;;;;;5035088;28;20080;-81
2023/04/11 11:18:52;;;;;;;11.60;2.28;;;9.20;99.90;;;;;;5034804;28;20053;-82
2023/04/11 11:21:23;;;;;;;12.18;2.33;;;9.20;99.90;;;;;;5034981;28;20053;-82
2023/04/11 11:23:59;;;;;;;9.95;2.00;;;9.30;99.90;;;;;;5018515;28;20060;-82
2023/04/11 11:26:39;;;;;;;8.57;1.85;;;9.40;99.90;;;;;;5018401;28;20042;-81
2023/04/11 11:29:05;;;;;;;11.45;2.15;;;9.50;99.90;;;;;;5034407;28;20053;-81
2023/04/11 11:31:51;;;;;;;10.60;1.90;;;9.50;99.90;;;;;;5034812;28;20164;-82
2023/04/11 11:34:27;;;;;;;10.65;2.30;;;9.60;99.90;;;;;;4990718;28;20054;-81
2023/04/11 11:36:55;;;;;;;8.57;1.92;;;9.80;99.90;;;;;;5051378;28;20140;-81
2023/04/11 11:39:21;;;;;;;9.70;2.20;;;9.90;99.90;;;;;;5034087;28;20406;-82
2023/04/11 11:41:48;;;;;;;10.38;2.00;;;10.00;99.90;;;;;;5034192;28;20088;-82
2023/04/11 11:44:40;;;;;;;9.93;1.90;;;10.10;99.90;;;;;;5034224;28;20046;-82
2023/04/11 11:47:16;;;;;;;9.52;2.15;;;10.00;99.90;;;;;;5029473;28;20064;-83
2023/04/11 11:49:51;;;;;;;8.43;1.85;;;10.10;99.90;;;;;;5034515;28;20053;-84
2023/04/11 11:52:43;;;;;;;9.40;1.80;;;10.30;99.90;;;;;;5034094;28;20064;-83
2023/04/11 11:55:32;;;;;;;10.60;1.75;;;10.30;99.90;;;;;;5034376;28;20097;-82
2023/04/11 11:58:00;;;;;;;8.00;1.80;;;10.30;99.90;;;;;;5020976;28;20064;-83
2023/04/11 12:00:28;;;;;;;10.20;1.77;;;10.50;99.90;;;;;;5034297;28;20057;-83
2023/04/11 12:02:55;;;;;;;9.50;2.00;;;10.80;99.90;;;;;;5034213;28;20049;-82
2023/04/11 12:05:23;;;;;;;8.45;1.67;;;11.00;99.90;;;;;;5017023;28;20130;-83
2023/04/11 12:07:53;;;;;;;10.77;2.00;;;11.00;99.90;;;;;;5033508;28;20056;-83
2023/04/11 12:10:19;;;;;;;7.78;1.60;;;11.10;99.90;;;;;;5034057;28;20140;-83
2023/04/11 12:12:49;;;;;;;8.18;1.70;;;11.50;99.90;;;;;;5033959;28;20132;-82
2023/04/11 12:15:17;;;;;;;10.98;1.88;;;11.80;99.90;;;;;;5033924;28;20126;-83
2023/04/11 12:17:47;;;;;;;8.45;2.00;;;11.90;99.90;;;;;;5033897;28;20045;-83
2023/04/11 12:20:16;;;;;;;10.77;1.85;;;12.00;99.90;;;;;;5034331;28;20049;-83
2023/04/11 12:22:42;;;;;;;9.35;2.13;;;12.00;99.90;;;;;;5017660;28;20085;-83
2023/04/11 12:25:13;;;;;;;12.35;2.00;;;11.90;99.90;;;;;;5050406;28;20397;-83
2023/04/11 12:27:41;;;;;;;10.35;1.83;;;11.70;99.90;;;;;;5033778;28;20273;-83
2023/04/11 12:30:08;;;;;;;8.73;1.60;;;11.60;99.90;;;;;;5016681;28;20037;-84
2023/04/11 12:32:37;;;;;;;8.23;1.60;;;11.50;99.90;;;;;;5017199;28;20077;-83
2023/04/11 12:35:04;;;;;;;7.78;1.50;;;11.50;99.90;;;;;;5033526;28;20077;-84
2023/04/11 12:37:31;;;;;;;8.15;1.60;;;11.40;99.90;;;;;;5033477;28;20058;-83
2023/04/11 12:39:56;;;;;;;7.85;1.60;;;11.30;99.90;;;;;;5016666;28;20050;-82
2023/04/11 12:42:22;;;;;;;9.43;1.73;;;11.40;99.90;;;;;;5033560;28;20044;-83
2023/04/11 12:44:49;;;;;;;7.90;1.90;;;11.70;99.90;;;;;;5000370;28;20053;-83
2023/04/11 12:47:15;;;;;;;7.43;1.80;;;11.70;99.90;;;;;;5016653;28;20053;-83
2023/04/11 12:49:47;;;;;;;8.68;1.88;;;11.60;98.70;;;;;;5016098;28;20275;-83
2023/04/11 12:52:13;;;;;;;8.68;1.92;;;11.80;99.90;;;;;;5049553;28;20128;-83
2023/04/11 12:54:39;;;;;;;8.20;1.73;;;11.90;98.10;;;;;;5049434;28;20524;-83
2023/04/11 12:57:06;;;;;;;12.57;2.08;;;11.90;98.20;;;;;;5033170;28;20046;-83